sensor_id;sensor_type;location;lat;lon;timestamp;P1;durP1;ratioP1;P2;durP2;ratioP2
68989;SDS011;56046;47.270;11.368;2024-01-15T00:01:12;18.83;;;9.37;;
68989;SDS011;56046;47.270;11.368;2024-01-15T00:03:38;16.57;;;8.77;;
68989;SDS011;56046;47.270;11.368;2024-01-15T00:06:03;18.20;;;9.07;;
68989;SDS011;56046;47.270;11.368;2024-01-15T00:08:29;19.40;;;8.65;;
68989;SDS011;56046;47.270;11.368;2024-01-15T00:10:54;18.80;;;8.63;;
68989;SDS011;56046;47.270;11.368;2024-01-15T00:13:19;18.73;;;8.30;;
68989;SDS011;56046;47.270;11.368;2024-01-15T00:15:44;15.87;;;7.20;;
68989;SDS011;56046;47.270;11.368;2024-01-15T00:18:10;19.50;;;8.63;;
68989;SDS011;56046;47.270;11.368;2024-01-15T00:20:35;20.30;;;8.70;;
68989;SDS011;56046;47.270;11.368;2024-01-15T00:23:00;17.60;;;8.13;;
68989;SDS011;56046;47.270;11.368;2024-01-15T00:25:25;17.30;;;7.90;;
68989;SDS011;56046;47.270;11.368;2024-01-15T00:27:51;18.83;;;9.63;;
68989;SDS011;56046;47.270;11.368;2024-01-15T00:30:16;17.30;;;7.90;;
68989;SDS011;56046;47.270;11.368;2024-01-15T00:32:41;18.67;;;8.60;;
68989;SDS011;56046;47.270;11.368;2024-01-15T00:35:06;16.30;;;8.93;;
68989;SDS011;56046;47.270;11.368;2024-01-15T00:37:32;24.57;;;9.57;;
68989;SDS011;56046;47.270;11.368;2024-01-15T00:39:57;20.47;;;8.90;;
68989;SDS011;56046;47.270;11.368;2024-01-15T00:42:22;17.43;;;8.00;;
68989;SDS011;56046;47.270;11.368;2024-01-15T00:44:47;17.20;;;8.30;;
68989;SDS011;56046;47.270;11.368;2024-01-15T00:47:13;16.17;;;8.40;;
68989;SDS011;56046;47.270;11.368;2024-01-15T00:49:38;18.60;;;8.70;;
68989;SDS011;56046;47.270;11.368;2024-01-15T00:52:03;15.93;;;8.53;;
68989;SDS011;56046;47.270;11.368;2024-01-15T00:54:29;14.90;;;8.27;;
68989;SDS011;56046;47.270;11.368;2024-01-15T00:56:54;21.03;;;8.60;;
68989;SDS011;56046;47.270;11.368;2024-01-15T00:59:20;17.45;;;8.82;;
68989;SDS011;56046;47.270;11.368;2024-01-15T01:01:45;19.70;;;8.47;;
68989;SDS011;56046;47.270;11.368;2024-01-15T01:04:11;17.52;;;8.55;;
68989;SDS011;56046;47.270;11.368;2024-01-15T01:06:36;15.03;;;8.23;;
68989;SDS011;56046;47.270;11.368;2024-01-15T01:09:02;18.33;;;8.70;;
68989;SDS011;56046;47.270;11.368;2024-01-15T01:11:27;18.07;;;8.70;;
68989;SDS011;56046;47.270;11.368;2024-01-15T01:13:52;19.43;;;7.60;;
68989;SDS011;56046;47.270;11.368;2024-01-15T01:16:17;16.00;;;8.33;;
68989;SDS011;56046;47.270;11.368;2024-01-15T01:18:43;18.67;;;9.03;;
68989;SDS011;56046;47.270;11.368;2024-01-15T01:21:08;18.63;;;8.87;;
68989;SDS011;56046;47.270;11.368;2024-01-15T01:23:33;15.70;;;7.80;;
68989;SDS011;56046;47.270;11.368;2024-01-15T01:25:58;21.27;;;8.67;;
68989;SDS011;56046;47.270;11.368;2024-01-15T01:28:24;14.97;;;7.33;;
68989;SDS011;56046;47.270;11.368;2024-01-15T01:30:49;17.67;;;7.93;;
68989;SDS011;56046;47.270;11.368;2024-01-15T01:33:15;17.57;;;7.80;;
68989;SDS011;56046;47.270;11.368;2024-01-15T01:35:40;16.23;;;8.05;;
68989;SDS011;56046;47.270;11.368;2024-01-15T01:38:05;18.77;;;7.63;;
68989;SDS011;56046;47.270;11.368;2024-01-15T01:40:31;16.03;;;7.80;;
68989;SDS011;56046;47.270;11.368;2024-01-15T01:42:56;15.23;;;7.77;;
68989;SDS011;56046;47.270;11.368;2024-01-15T01:45:21;20.73;;;8.67;;
68989;SDS011;56046;47.270;11.368;2024-01-15T01:47:46;21.57;;;8.97;;
68989;SDS011;56046;47.270;11.368;2024-01-15T01:50:12;18.90;;;9.07;;
68989;SDS011;56046;47.270;11.368;2024-01-15T01:52:37;19.87;;;7.73;;
68989;SDS011;56046;47.270;11.368;2024-01-15T01:55:03;19.98;;;8.32;;
68989;SDS011;56046;47.270;11.368;2024-01-15T01:57:29;18.07;;;8.40;;
68989;SDS011;56046;47.270;11.368;2024-01-15T01:59:55;17.88;;;8.38;;
68989;SDS011;56046;47.270;11.368;2024-01-15T02:02:20;18.50;;;8.53;;
68989;SDS011;56046;47.270;11.368;2024-01-15T02:04:46;18.40;;;8.48;;
68989;SDS011;56046;47.270;11.368;2024-01-15T02:07:12;19.77;;;8.57;;
68989;SDS011;56046;47.270;11.368;2024-01-15T02:09:37;18.23;;;8.20;;
68989;SDS011;56046;47.270;11.368;2024-01-15T02:12:03;15.40;;;8.10;;
68989;SDS011;56046;47.270;11.368;2024-01-15T02:14:28;12.37;;;6.97;;
68989;SDS011;56046;47.270;11.368;2024-01-15T02:16:53;15.93;;;7.80;;
68989;SDS011;56046;47.270;11.368;2024-01-15T02:19:19;21.40;;;8.10;;
68989;SDS011;56046;47.270;11.368;2024-01-15T02:21:44;19.33;;;8.57;;
68989;SDS011;56046;47.270;11.368;2024-01-15T02:24:10;18.67;;;8.70;;
68989;SDS011;56046;47.270;11.368;2024-01-15T02:26:36;14.25;;;7.75;;
68989;SDS011;56046;47.270;11.368;2024-01-15T02:29:03;17.08;;;7.88;;
68989;SDS011;56046;47.270;11.368;2024-01-15T02:31:28;19.43;;;8.23;;
68989;SDS011;56046;47.270;11.368;2024-01-15T02:33:53;18.80;;;8.47;;
68989;SDS011;56046;47.270;11.368;2024-01-15T02:36:19;15.07;;;7.07;;
68989;SDS011;56046;47.270;11.368;2024-01-15T02:38:44;17.97;;;8.30;;
68989;SDS011;56046;47.270;11.368;2024-01-15T02:41:09;14.30;;;7.07;;
68989;SDS011;56046;47.270;11.368;2024-01-15T02:43:34;15.50;;;7.53;;
68989;SDS011;56046;47.270;11.368;2024-01-15T02:46:00;17.27;;;7.90;;
68989;SDS011;56046;47.270;11.368;2024-01-15T02:48:25;14.37;;;7.27;;
68989;SDS011;56046;47.270;11.368;2024-01-15T02:50:50;17.67;;;8.33;;
68989;SDS011;56046;47.270;11.368;2024-01-15T02:53:15;17.17;;;8.07;;
68989;SDS011;56046;47.270;11.368;2024-01-15T02:55:41;20.53;;;9.13;;
68989;SDS011;56046;47.270;11.368;2024-01-15T02:58:07;16.07;;;7.60;;
68989;SDS011;56046;47.270;11.368;2024-01-15T03:00:32;17.65;;;8.10;;
68989;SDS011;56046;47.270;11.368;2024-01-15T03:02:57;16.33;;;8.13;;
68989;SDS011;56046;47.270;11.368;2024-01-15T03:05:22;14.40;;;7.87;;
68989;SDS011;56046;47.270;11.368;2024-01-15T03:07:48;15.63;;;7.43;;
68989;SDS011;56046;47.270;11.368;2024-01-15T03:10:13;18.77;;;8.40;;
68989;SDS011;56046;47.270;11.368;2024-01-15T03:12:38;14.47;;;7.50;;
68989;SDS011;56046;47.270;11.368;2024-01-15T03:15:04;16.63;;;8.33;;
68989;SDS011;56046;47.270;11.368;2024-01-15T03:17:29;16.17;;;7.33;;
68989;SDS011;56046;47.270;11.368;2024-01-15T03:19:54;17.47;;;8.23;;
68989;SDS011;56046;47.270;11.368;2024-01-15T03:22:20;14.07;;;6.40;;
68989;SDS011;56046;47.270;11.368;2024-01-15T03:24:45;15.20;;;7.82;;
68989;SDS011;56046;47.270;11.368;2024-01-15T03:27:10;16.63;;;7.70;;
68989;SDS011;56046;47.270;11.368;2024-01-15T03:29:35;14.63;;;7.70;;
68989;SDS011;56046;47.270;11.368;2024-01-15T03:32:01;13.50;;;6.47;;
68989;SDS011;56046;47.270;11.368;2024-01-15T03:34:26;14.03;;;7.17;;
68989;SDS011;56046;47.270;11.368;2024-01-15T03:36:51;16.07;;;7.57;;
68989;SDS011;56046;47.270;11.368;2024-01-15T03:39:16;17.30;;;7.93;;
68989;SDS011;56046;47.270;11.368;2024-01-15T03:41:42;13.47;;;7.13;;
68989;SDS011;56046;47.270;11.368;2024-01-15T03:44:07;15.27;;;7.77;;
68989;SDS011;56046;47.270;11.368;2024-01-15T03:46:32;16.40;;;7.10;;
68989;SDS011;56046;47.270;11.368;2024-01-15T03:48:57;15.13;;;7.63;;
68989;SDS011;56046;47.270;11.368;2024-01-15T03:51:23;15.03;;;7.63;;
68989;SDS011;56046;47.270;11.368;2024-01-15T03:53:48;17.90;;;8.00;;
68989;SDS011;56046;47.270;11.368;2024-01-15T03:56:13;16.67;;;7.97;;
68989;SDS011;56046;47.270;11.368;2024-01-15T03:58:38;16.80;;;8.97;;
68989;SDS011;56046;47.270;11.368;2024-01-15T04:01:07;14.73;;;7.23;;
68989;SDS011;56046;47.270;11.368;2024-01-15T04:03:32;13.70;;;6.57;;
68989;SDS011;56046;47.270;11.368;2024-01-15T04:05:57;17.50;;;8.43;;
68989;SDS011;56046;47.270;11.368;2024-01-15T04:08:23;17.00;;;7.63;;
68989;SDS011;56046;47.270;11.368;2024-01-15T04:10:48;16.37;;;7.90;;
68989;SDS011;56046;47.270;11.368;2024-01-15T04:13:13;15.83;;;7.67;;
68989;SDS011;56046;47.270;11.368;2024-01-15T04:15:38;16.60;;;8.60;;
68989;SDS011;56046;47.270;11.368;2024-01-15T04:18:04;19.00;;;9.23;;
68989;SDS011;56046;47.270;11.368;2024-01-15T04:20:29;17.30;;;8.00;;
68989;SDS011;56046;47.270;11.368;2024-01-15T04:22:54;15.53;;;7.93;;
68989;SDS011;56046;47.270;11.368;2024-01-15T04:25:20;17.77;;;8.57;;
68989;SDS011;56046;47.270;11.368;2024-01-15T04:27:45;17.27;;;9.03;;
68989;SDS011;56046;47.270;11.368;2024-01-15T04:30:10;16.83;;;8.70;;
68989;SDS011;56046;47.270;11.368;2024-01-15T04:32:35;16.63;;;8.50;;
68989;SDS011;56046;47.270;11.368;2024-01-15T04:35:01;15.23;;;8.20;;
68989;SDS011;56046;47.270;11.368;2024-01-15T04:37:26;16.13;;;8.33;;
68989;SDS011;56046;47.270;11.368;2024-01-15T04:39:51;14.63;;;7.77;;
68989;SDS011;56046;47.270;11.368;2024-01-15T04:42:19;15.25;;;8.10;;
68989;SDS011;56046;47.270;11.368;2024-01-15T04:44:45;14.67;;;7.70;;
68989;SDS011;56046;47.270;11.368;2024-01-15T04:47:10;14.17;;;7.70;;
68989;SDS011;56046;47.270;11.368;2024-01-15T04:49:36;15.77;;;7.32;;
68989;SDS011;56046;47.270;11.368;2024-01-15T04:52:01;14.55;;;7.43;;
68989;SDS011;56046;47.270;11.368;2024-01-15T04:54:26;16.23;;;8.00;;
68989;SDS011;56046;47.270;11.368;2024-01-15T04:56:52;16.90;;;8.73;;
68989;SDS011;56046;47.270;11.368;2024-01-15T04:59:17;14.87;;;7.07;;
68989;SDS011;56046;47.270;11.368;2024-01-15T05:01:43;15.73;;;7.50;;
68989;SDS011;56046;47.270;11.368;2024-01-15T05:04:08;14.07;;;7.75;;
68989;SDS011;56046;47.270;11.368;2024-01-15T05:06:33;16.52;;;8.52;;
68989;SDS011;56046;47.270;11.368;2024-01-15T05:08:58;15.65;;;8.00;;
68989;SDS011;56046;47.270;11.368;2024-01-15T05:11:24;17.27;;;8.65;;
68989;SDS011;56046;47.270;11.368;2024-01-15T05:13:49;15.80;;;8.33;;
68989;SDS011;56046;47.270;11.368;2024-01-15T05:16:15;17.33;;;8.40;;
68989;SDS011;56046;47.270;11.368;2024-01-15T05:18:40;15.90;;;8.53;;
68989;SDS011;56046;47.270;11.368;2024-01-15T05:21:05;12.67;;;6.60;;
68989;SDS011;56046;47.270;11.368;2024-01-15T05:23:31;13.57;;;5.60;;
68989;SDS011;56046;47.270;11.368;2024-01-15T05:25:56;12.38;;;5.97;;
68989;SDS011;56046;47.270;11.368;2024-01-15T05:28:22;12.83;;;5.87;;
68989;SDS011;56046;47.270;11.368;2024-01-15T05:30:47;12.87;;;6.77;;
68989;SDS011;56046;47.270;11.368;2024-01-15T05:33:12;16.77;;;8.47;;
68989;SDS011;56046;47.270;11.368;2024-01-15T05:35:37;14.83;;;8.00;;
68989;SDS011;56046;47.270;11.368;2024-01-15T05:38:03;21.10;;;8.87;;
68989;SDS011;56046;47.270;11.368;2024-01-15T05:40:28;15.07;;;8.23;;
68989;SDS011;56046;47.270;11.368;2024-01-15T05:42:53;17.70;;;8.07;;
68989;SDS011;56046;47.270;11.368;2024-01-15T05:45:18;16.83;;;8.20;;
68989;SDS011;56046;47.270;11.368;2024-01-15T05:47:44;17.93;;;8.57;;
68989;SDS011;56046;47.270;11.368;2024-01-15T05:50:09;15.83;;;7.93;;
68989;SDS011;56046;47.270;11.368;2024-01-15T05:52:34;15.93;;;8.30;;
68989;SDS011;56046;47.270;11.368;2024-01-15T05:55:00;15.57;;;8.13;;
68989;SDS011;56046;47.270;11.368;2024-01-15T05:57:25;21.53;;;10.00;;
68989;SDS011;56046;47.270;11.368;2024-01-15T05:59:50;17.80;;;10.02;;
68989;SDS011;56046;47.270;11.368;2024-01-15T06:02:16;16.20;;;8.33;;
68989;SDS011;56046;47.270;11.368;2024-01-15T06:04:41;23.90;;;10.47;;
68989;SDS011;56046;47.270;11.368;2024-01-15T06:07:06;18.13;;;8.50;;
68989;SDS011;56046;47.270;11.368;2024-01-15T06:09:31;18.50;;;8.30;;
68989;SDS011;56046;47.270;11.368;2024-01-15T06:11:57;14.37;;;8.03;;
68989;SDS011;56046;47.270;11.368;2024-01-15T06:14:22;18.43;;;9.70;;
68989;SDS011;56046;47.270;11.368;2024-01-15T06:16:47;17.67;;;7.67;;
68989;SDS011;56046;47.270;11.368;2024-01-15T06:19:12;14.37;;;7.37;;
68989;SDS011;56046;47.270;11.368;2024-01-15T06:21:38;13.60;;;7.17;;
68989;SDS011;56046;47.270;11.368;2024-01-15T06:24:03;14.03;;;7.07;;
68989;SDS011;56046;47.270;11.368;2024-01-15T06:26:28;13.07;;;6.87;;
68989;SDS011;56046;47.270;11.368;2024-01-15T06:28:53;12.63;;;7.10;;
68989;SDS011;56046;47.270;11.368;2024-01-15T06:31:19;15.13;;;7.70;;
68989;SDS011;56046;47.270;11.368;2024-01-15T06:33:44;14.17;;;7.53;;
68989;SDS011;56046;47.270;11.368;2024-01-15T06:36:12;13.65;;;7.25;;
68989;SDS011;56046;47.270;11.368;2024-01-15T06:38:37;13.90;;;7.40;;
68989;SDS011;56046;47.270;11.368;2024-01-15T06:41:02;13.30;;;7.20;;
68989;SDS011;56046;47.270;11.368;2024-01-15T06:43:28;15.70;;;7.27;;
68989;SDS011;56046;47.270;11.368;2024-01-15T06:45:53;14.53;;;7.67;;
68989;SDS011;56046;47.270;11.368;2024-01-15T06:48:18;14.23;;;6.73;;
68989;SDS011;56046;47.270;11.368;2024-01-15T06:50:43;12.23;;;6.13;;
68989;SDS011;56046;47.270;11.368;2024-01-15T06:53:09;17.37;;;6.80;;
68989;SDS011;56046;47.270;11.368;2024-01-15T06:55:34;11.87;;;6.40;;
68989;SDS011;56046;47.270;11.368;2024-01-15T06:57:59;14.63;;;7.07;;
68989;SDS011;56046;47.270;11.368;2024-01-15T07:00:25;15.57;;;7.87;;
68989;SDS011;56046;47.270;11.368;2024-01-15T07:02:50;15.25;;;7.50;;
68989;SDS011;56046;47.270;11.368;2024-01-15T07:05:15;24.13;;;12.23;;
68989;SDS011;56046;47.270;11.368;2024-01-15T07:07:41;19.50;;;9.23;;
68989;SDS011;56046;47.270;11.368;2024-01-15T07:10:06;15.10;;;8.30;;
68989;SDS011;56046;47.270;11.368;2024-01-15T07:12:31;13.90;;;6.93;;
68989;SDS011;56046;47.270;11.368;2024-01-15T07:14:57;15.73;;;8.73;;
68989;SDS011;56046;47.270;11.368;2024-01-15T07:17:22;14.45;;;8.02;;
68989;SDS011;56046;47.270;11.368;2024-01-15T07:19:48;12.63;;;7.33;;
68989;SDS011;56046;47.270;11.368;2024-01-15T07:22:14;14.87;;;7.50;;
68989;SDS011;56046;47.270;11.368;2024-01-15T07:24:40;14.20;;;7.77;;
68989;SDS011;56046;47.270;11.368;2024-01-15T07:27:05;14.95;;;8.32;;
68989;SDS011;56046;47.270;11.368;2024-01-15T07:29:30;14.77;;;7.00;;
68989;SDS011;56046;47.270;11.368;2024-01-15T07:31:58;14.17;;;8.33;;
68989;SDS011;56046;47.270;11.368;2024-01-15T07:34:23;12.95;;;7.93;;
68989;SDS011;56046;47.270;11.368;2024-01-15T07:36:48;13.83;;;7.77;;
68989;SDS011;56046;47.270;11.368;2024-01-15T07:39:13;12.73;;;7.40;;
68989;SDS011;56046;47.270;11.368;2024-01-15T07:41:39;14.53;;;6.73;;
68989;SDS011;56046;47.270;11.368;2024-01-15T07:44:04;13.60;;;7.20;;
68989;SDS011;56046;47.270;11.368;2024-01-15T07:46:30;13.87;;;7.73;;
68989;SDS011;56046;47.270;11.368;2024-01-15T07:48:55;14.20;;;7.23;;
68989;SDS011;56046;47.270;11.368;2024-01-15T07:51:22;14.07;;;7.55;;
68989;SDS011;56046;47.270;11.368;2024-01-15T07:53:48;16.30;;;7.70;;
68989;SDS011;56046;47.270;11.368;2024-01-15T07:56:13;14.27;;;7.57;;
68989;SDS011;56046;47.270;11.368;2024-01-15T07:58:38;14.17;;;7.17;;
68989;SDS011;56046;47.270;11.368;2024-01-15T08:01:03;12.90;;;7.25;;
68989;SDS011;56046;47.270;11.368;2024-01-15T08:03:29;12.25;;;7.32;;
68989;SDS011;56046;47.270;11.368;2024-01-15T08:05:54;14.47;;;6.97;;
68989;SDS011;56046;47.270;11.368;2024-01-15T08:08:22;12.18;;;7.10;;
68989;SDS011;56046;47.270;11.368;2024-01-15T08:10:48;12.30;;;7.40;;
68989;SDS011;56046;47.270;11.368;2024-01-15T08:13:13;13.23;;;6.93;;
68989;SDS011;56046;47.270;11.368;2024-01-15T08:15:38;16.27;;;7.20;;
68989;SDS011;56046;47.270;11.368;2024-01-15T08:18:04;15.73;;;7.90;;
68989;SDS011;56046;47.270;11.368;2024-01-15T08:20:29;13.43;;;7.47;;
68989;SDS011;56046;47.270;11.368;2024-01-15T08:22:54;13.85;;;7.25;;
68989;SDS011;56046;47.270;11.368;2024-01-15T08:25:20;15.93;;;7.30;;
68989;SDS011;56046;47.270;11.368;2024-01-15T08:27:45;13.87;;;7.37;;
68989;SDS011;56046;47.270;11.368;2024-01-15T08:30:10;12.60;;;7.33;;
68989;SDS011;56046;47.270;11.368;2024-01-15T08:32:36;13.70;;;7.23;;
68989;SDS011;56046;47.270;11.368;2024-01-15T08:35:05;15.18;;;7.30;;
68989;SDS011;56046;47.270;11.368;2024-01-15T08:37:31;16.37;;;7.03;;
68989;SDS011;56046;47.270;11.368;2024-01-15T08:39:56;14.57;;;7.23;;
68989;SDS011;56046;47.270;11.368;2024-01-15T08:42:21;13.07;;;7.07;;
68989;SDS011;56046;47.270;11.368;2024-01-15T08:44:47;15.67;;;6.73;;
68989;SDS011;56046;47.270;11.368;2024-01-15T08:47:12;13.33;;;7.57;;
68989;SDS011;56046;47.270;11.368;2024-01-15T08:49:37;13.23;;;6.83;;
68989;SDS011;56046;47.270;11.368;2024-01-15T08:52:02;13.10;;;6.30;;
68989;SDS011;56046;47.270;11.368;2024-01-15T08:54:28;12.37;;;5.83;;
68989;SDS011;56046;47.270;11.368;2024-01-15T08:56:53;11.10;;;6.00;;
68989;SDS011;56046;47.270;11.368;2024-01-15T08:59:18;14.03;;;7.17;;
68989;SDS011;56046;47.270;11.368;2024-01-15T09:01:49;13.60;;;7.07;;
68989;SDS011;56046;47.270;11.368;2024-01-15T09:04:14;13.43;;;7.27;;
68989;SDS011;56046;47.270;11.368;2024-01-15T09:06:40;13.45;;;7.20;;
68989;SDS011;56046;47.270;11.368;2024-01-15T09:09:05;13.97;;;6.90;;
68989;SDS011;56046;47.270;11.368;2024-01-15T09:11:31;16.67;;;6.90;;
68989;SDS011;56046;47.270;11.368;2024-01-15T09:13:57;11.13;;;5.97;;
68989;SDS011;56046;47.270;11.368;2024-01-15T09:16:22;10.10;;;5.43;;
68989;SDS011;56046;47.270;11.368;2024-01-15T09:18:48;11.20;;;6.57;;
68989;SDS011;56046;47.270;11.368;2024-01-15T09:21:13;13.17;;;6.27;;
68989;SDS011;56046;47.270;11.368;2024-01-15T09:23:38;11.20;;;6.37;;
68989;SDS011;56046;47.270;11.368;2024-01-15T09:26:04;11.27;;;5.97;;
68989;SDS011;56046;47.270;11.368;2024-01-15T09:28:29;12.23;;;5.88;;
68989;SDS011;56046;47.270;11.368;2024-01-15T09:30:54;11.00;;;5.97;;
68989;SDS011;56046;47.270;11.368;2024-01-15T09:33:19;12.80;;;6.50;;
68989;SDS011;56046;47.270;11.368;2024-01-15T09:35:45;11.73;;;6.90;;
68989;SDS011;56046;47.270;11.368;2024-01-15T09:38:10;10.90;;;6.43;;
68989;SDS011;56046;47.270;11.368;2024-01-15T09:40:35;13.03;;;6.67;;
68989;SDS011;56046;47.270;11.368;2024-01-15T09:43:03;11.48;;;6.35;;
68989;SDS011;56046;47.270;11.368;2024-01-15T09:45:28;11.60;;;6.33;;
68989;SDS011;56046;47.270;11.368;2024-01-15T09:47:54;10.63;;;6.13;;
68989;SDS011;56046;47.270;11.368;2024-01-15T09:50:19;12.17;;;6.53;;
68989;SDS011;56046;47.270;11.368;2024-01-15T09:52:45;12.88;;;6.43;;
68989;SDS011;56046;47.270;11.368;2024-01-15T09:55:10;11.93;;;6.33;;
68989;SDS011;56046;47.270;11.368;2024-01-15T09:57:36;9.68;;;5.40;;
68989;SDS011;56046;47.270;11.368;2024-01-15T10:00:02;11.77;;;6.32;;
68989;SDS011;56046;47.270;11.368;2024-01-15T10:02:29;11.10;;;5.90;;
68989;SDS011;56046;47.270;11.368;2024-01-15T10:04:55;12.52;;;6.28;;
68989;SDS011;56046;47.270;11.368;2024-01-15T10:07:20;11.23;;;5.33;;
68989;SDS011;56046;47.270;11.368;2024-01-15T10:09:47;11.13;;;5.30;;
68989;SDS011;56046;47.270;11.368;2024-01-15T10:12:12;11.52;;;5.88;;
68989;SDS011;56046;47.270;11.368;2024-01-15T10:14:37;9.67;;;5.83;;
68989;SDS011;56046;47.270;11.368;2024-01-15T10:17:13;10.10;;;6.37;;
68989;SDS011;56046;47.270;11.368;2024-01-15T10:19:39;11.95;;;5.50;;
68989;SDS011;56046;47.270;11.368;2024-01-15T10:22:06;14.55;;;7.28;;
68989;SDS011;56046;47.270;11.368;2024-01-15T10:24:31;13.40;;;6.73;;
68989;SDS011;56046;47.270;11.368;2024-01-15T10:27:09;18.47;;;8.87;;
68989;SDS011;56046;47.270;11.368;2024-01-15T10:29:35;16.80;;;8.20;;
68989;SDS011;56046;47.270;11.368;2024-01-15T10:32:01;11.65;;;5.97;;
68989;SDS011;56046;47.270;11.368;2024-01-15T10:34:27;11.07;;;5.72;;
68989;SDS011;56046;47.270;11.368;2024-01-15T10:36:52;11.50;;;6.13;;
68989;SDS011;56046;47.270;11.368;2024-01-15T10:39:23;11.82;;;5.70;;
68989;SDS011;56046;47.270;11.368;2024-01-15T10:41:49;10.70;;;6.20;;
68989;SDS011;56046;47.270;11.368;2024-01-15T10:44:16;12.65;;;6.35;;
68989;SDS011;56046;47.270;11.368;2024-01-15T10:46:41;11.50;;;6.03;;
68989;SDS011;56046;47.270;11.368;2024-01-15T10:49:06;10.60;;;6.37;;
68989;SDS011;56046;47.270;11.368;2024-01-15T10:51:32;11.30;;;5.63;;
68989;SDS011;56046;47.270;11.368;2024-01-15T10:53:57;11.17;;;6.17;;
68989;SDS011;56046;47.270;11.368;2024-01-15T10:56:25;13.75;;;6.32;;
68989;SDS011;56046;47.270;11.368;2024-01-15T10:58:50;13.50;;;7.10;;
68989;SDS011;56046;47.270;11.368;2024-01-15T11:01:16;11.80;;;5.90;;
68989;SDS011;56046;47.270;11.368;2024-01-15T11:03:42;13.50;;;6.28;;
68989;SDS011;56046;47.270;11.368;2024-01-15T11:06:17;10.88;;;6.55;;
68989;SDS011;56046;47.270;11.368;2024-01-15T11:08:48;11.50;;;5.85;;
68989;SDS011;56046;47.270;11.368;2024-01-15T11:11:15;11.50;;;6.28;;
68989;SDS011;56046;47.270;11.368;2024-01-15T11:13:40;11.55;;;5.97;;
68989;SDS011;56046;47.270;11.368;2024-01-15T11:16:07;9.70;;;5.90;;
68989;SDS011;56046;47.270;11.368;2024-01-15T11:18:36;10.77;;;6.43;;
68989;SDS011;56046;47.270;11.368;2024-01-15T11:28:58;10.25;;;5.35;;
68989;SDS011;56046;47.270;11.368;2024-01-15T11:34:08;12.93;;;6.35;;
68989;SDS011;56046;47.270;11.368;2024-01-15T11:41:55;13.75;;;5.90;;
68989;SDS011;56046;47.270;11.368;2024-01-15T11:44:20;12.35;;;6.07;;
68989;SDS011;56046;47.270;11.368;2024-01-15T11:46:47;10.77;;;6.00;;
68989;SDS011;56046;47.270;11.368;2024-01-15T11:49:24;13.32;;;6.03;;
68989;SDS011;56046;47.270;11.368;2024-01-15T11:51:54;11.93;;;5.90;;
68989;SDS011;56046;47.270;11.368;2024-01-15T11:54:20;12.63;;;6.05;;
68989;SDS011;56046;47.270;11.368;2024-01-15T11:56:46;10.65;;;5.85;;
68989;SDS011;56046;47.270;11.368;2024-01-15T11:59:11;11.37;;;6.17;;
68989;SDS011;56046;47.270;11.368;2024-01-15T12:01:37;10.50;;;5.80;;
68989;SDS011;56046;47.270;11.368;2024-01-15T12:04:02;9.70;;;5.37;;
68989;SDS011;56046;47.270;11.368;2024-01-15T12:06:27;11.47;;;6.63;;
68989;SDS011;56046;47.270;11.368;2024-01-15T12:09:05;10.83;;;6.07;;
68989;SDS011;56046;47.270;11.368;2024-01-15T12:11:30;11.70;;;5.53;;
68989;SDS011;56046;47.270;11.368;2024-01-15T12:13:56;11.75;;;5.93;;
68989;SDS011;56046;47.270;11.368;2024-01-15T12:16:22;11.23;;;5.93;;
68989;SDS011;56046;47.270;11.368;2024-01-15T12:18:47;11.77;;;6.32;;
68989;SDS011;56046;47.270;11.368;2024-01-15T12:21:13;11.73;;;6.15;;
68989;SDS011;56046;47.270;11.368;2024-01-15T12:23:39;11.60;;;5.30;;
68989;SDS011;56046;47.270;11.368;2024-01-15T12:26:04;9.40;;;4.80;;
68989;SDS011;56046;47.270;11.368;2024-01-15T12:28:29;9.45;;;4.78;;
68989;SDS011;56046;47.270;11.368;2024-01-15T12:30:55;11.10;;;4.93;;
68989;SDS011;56046;47.270;11.368;2024-01-15T12:33:20;8.83;;;4.57;;
68989;SDS011;56046;47.270;11.368;2024-01-15T12:35:46;9.67;;;5.70;;
68989;SDS011;56046;47.270;11.368;2024-01-15T12:38:11;9.57;;;4.50;;
68989;SDS011;56046;47.270;11.368;2024-01-15T12:40:36;7.47;;;4.00;;
68989;SDS011;56046;47.270;11.368;2024-01-15T12:43:02;9.40;;;4.50;;
68989;SDS011;56046;47.270;11.368;2024-01-15T12:45:27;9.47;;;4.77;;
68989;SDS011;56046;47.270;11.368;2024-01-15T12:47:52;11.80;;;4.57;;
68989;SDS011;56046;47.270;11.368;2024-01-15T12:50:18;9.27;;;4.95;;
68989;SDS011;56046;47.270;11.368;2024-01-15T12:52:43;9.33;;;4.80;;
68989;SDS011;56046;47.270;11.368;2024-01-15T12:55:09;9.27;;;4.90;;
68989;SDS011;56046;47.270;11.368;2024-01-15T12:57:35;7.90;;;4.32;;
68989;SDS011;56046;47.270;11.368;2024-01-15T13:00:00;8.00;;;4.32;;
68989;SDS011;56046;47.270;11.368;2024-01-15T13:02:26;7.73;;;3.73;;
68989;SDS011;56046;47.270;11.368;2024-01-15T13:04:51;7.80;;;3.67;;
68989;SDS011;56046;47.270;11.368;2024-01-15T13:07:16;9.35;;;4.28;;
68989;SDS011;56046;47.270;11.368;2024-01-15T13:09:42;10.48;;;5.47;;
68989;SDS011;56046;47.270;11.368;2024-01-15T13:12:08;12.80;;;4.07;;
68989;SDS011;56046;47.270;11.368;2024-01-15T13:14:33;8.90;;;4.17;;
68989;SDS011;56046;47.270;11.368;2024-01-15T13:16:58;10.63;;;4.68;;
68989;SDS011;56046;47.270;11.368;2024-01-15T13:19:24;11.17;;;4.67;;
68989;SDS011;56046;47.270;11.368;2024-01-15T13:21:49;8.80;;;4.27;;
68989;SDS011;56046;47.270;11.368;2024-01-15T13:24:16;9.38;;;5.03;;
68989;SDS011;56046;47.270;11.368;2024-01-15T13:26:41;10.07;;;5.10;;
68989;SDS011;56046;47.270;11.368;2024-01-15T13:29:06;9.57;;;5.10;;
68989;SDS011;56046;47.270;11.368;2024-01-15T13:31:32;10.57;;;4.80;;
68989;SDS011;56046;47.270;11.368;2024-01-15T13:33:57;11.15;;;5.18;;
68989;SDS011;56046;47.270;11.368;2024-01-15T13:36:23;11.43;;;5.83;;
68989;SDS011;56046;47.270;11.368;2024-01-15T13:38:52;12.40;;;5.87;;
68989;SDS011;56046;47.270;11.368;2024-01-15T13:41:18;10.80;;;4.68;;
68989;SDS011;56046;47.270;11.368;2024-01-15T13:43:45;9.53;;;4.77;;
68989;SDS011;56046;47.270;11.368;2024-01-15T13:46:10;8.10;;;4.05;;
68989;SDS011;56046;47.270;11.368;2024-01-15T13:48:36;7.83;;;4.07;;
68989;SDS011;56046;47.270;11.368;2024-01-15T13:51:01;6.07;;;2.87;;
68989;SDS011;56046;47.270;11.368;2024-01-15T13:53:26;5.60;;;2.47;;
68989;SDS011;56046;47.270;11.368;2024-01-15T13:55:51;4.33;;;1.70;;
68989;SDS011;56046;47.270;11.368;2024-01-15T13:58:17;6.90;;;1.47;;
68989;SDS011;56046;47.270;11.368;2024-01-15T14:00:43;4.22;;;1.40;;
68989;SDS011;56046;47.270;11.368;2024-01-15T14:03:08;7.17;;;1.80;;
68989;SDS011;56046;47.270;11.368;2024-01-15T14:05:34;8.07;;;1.40;;
68989;SDS011;56046;47.270;11.368;2024-01-15T14:07:59;4.33;;;1.40;;
68989;SDS011;56046;47.270;11.368;2024-01-15T14:10:25;5.00;;;1.48;;
68989;SDS011;56046;47.270;11.368;2024-01-15T14:12:50;4.80;;;1.70;;
68989;SDS011;56046;47.270;11.368;2024-01-15T14:15:15;5.80;;;1.83;;
68989;SDS011;56046;47.270;11.368;2024-01-15T14:17:41;3.80;;;1.60;;
68989;SDS011;56046;47.270;11.368;2024-01-15T14:20:06;5.33;;;1.63;;
68989;SDS011;56046;47.270;11.368;2024-01-15T14:22:31;3.60;;;1.33;;
68989;SDS011;56046;47.270;11.368;2024-01-15T14:24:57;3.70;;;1.50;;
68989;SDS011;56046;47.270;11.368;2024-01-15T14:27:22;3.67;;;1.20;;
68989;SDS011;56046;47.270;11.368;2024-01-15T14:29:47;3.07;;;1.20;;